Saturday, July 02, 2016
02:06 UTC
  |  Log In   |  Register Free
Airport Search:

Raton Municipal/Crews Field Airport
(KRTN)

Raton Municipal/Crews Field Airport Diagram
No Airport Diagram Available

FAA data valid effective May 26 2016 - Jul 21 2016 (unless otherwise noted).

 
 
 
 
 
 
 
 
 
 
 
 
 
 
Current Aviation Weather for KRTN

Weather Summary


The most recent METAR observation for RTN was updated at: 12:53 UTC
METAR for KRTN is not available. Closest METAR is for KTAD
KRTN  (most recent observation was updatred at 20:15 UTC)
020153Z AUTO 26006KT 10SM -RA FEW080 BKN095 OVC110 17/12 A3018 RMK AO2 SLP143 P0001 T01720122

KTAD  (32.0 nm SW)   (most recent observation was updated at 20:15 UTC)
020154Z AUTO 25008KT 10SM -RA OVC095 20/12 A3015 RMK AO2 PKWND 24031/0055 RAB04 SLP140 P0000 T02000117

TAF for KRTN is not available.
GlobalAir.com is loading additional information.
 Current Weather at RTN
60.0 F° (15.6 C°)

West winds at 8.1 mph
Pressure:
30.20 in
Humidity:
86%
Wind:
West at 8.1 mph
Dew Point:
55.9 F° (13.3 C°)
Visibility:
5.00 mi
RTN NOAA Radar




Find All Airport Services Find A Hotel Find A Rental Car Find A Golf Course Find A Restaurant $100 Hamburger



Airport Weather Forecast for KRTN

Translated METAR for KRTN (0153 UTC)
METAR:
KRTN 020153Z AUTO 26006KT 10SM -RA FEW080 BKN095 OVC110 17/12 A3018 RMK AO2 SLP143 P0001 T01720122
Conditions at:
KRTN (Raton Muni/Crews Field, NM) observed 0153 UTC 01 July 2016
Temperature:
17°C (62.6°F)
Dewpoint:
12°C (53.6°F) [RH = 72.4]
Pressure:
30.18 inches Hg (1022 mb)
pressure at sea level is 143 in Hg
Winds:
from the W (260 degrees) at 6.9 mph (6 knots: 3.1 m/s)
Visibility:
10 mile(s)
Ceiling:
9,500 feet AGL
Clouds:
Few Clouds at 8,000 feet AGL
Broken Cloud Cover at 9,500 feet AGL
Overcast Skies at 11,000 feet AGL
Remarks:
site is un-manned
site is automated and HAS a precipitation sensor

Translated TAF for TAF for RTN is not available. Refer to local area forecast.
FBO's on the Field
FBO Company Facility Photos Services Transportation Aviation Fuel Prices: Prices include tax
Catering Weather Repair Courtesy Rental Type 100LL JetA JetA+ MOGAS 8087
 
Express Aviation Services

This FBO has not yet been rated
FS:Phillips 66
Last Updated: Jul-01
Login to update fuel prices
SS:
Contact Express Aviation ServicesMore FBO Information
 
Add another FBO Facility Photos Catering Weather Repair Courtesy Rental Type 100LL JetA JetA+ MOGAS 8087
Services Transportation Aviation Fuel Prices: Prices include tax


model-print
model-print
model-print
model-print